createdAt,value
2023-08-11T00:00:55.802Z,15.86
2023-08-11T00:05:00.439Z,15.82
2023-08-11T00:09:05.438Z,15.77
2023-08-11T00:13:13.823Z,15.74
2023-08-11T00:17:17.850Z,15.71
2023-08-11T00:21:22.629Z,15.72
2023-08-11T00:25:26.214Z,15.70
2023-08-11T00:29:29.389Z,15.66
2023-08-11T00:33:32.766Z,15.59
2023-08-11T00:37:37.490Z,15.50
2023-08-11T00:41:41.098Z,15.40
2023-08-11T00:45:47.749Z,15.32
2023-08-11T00:49:52.020Z,15.24
2023-08-11T00:53:59.723Z,15.16
2023-08-11T00:58:03.448Z,15.11
2023-08-11T01:02:08.172Z,15.10
2023-08-11T01:06:21.629Z,15.08
2023-08-11T01:10:35.980Z,15.07
2023-08-11T01:14:45.830Z,15.05
2023-08-11T01:18:49.761Z,15.05
2023-08-11T01:22:59.493Z,15.05
2023-08-11T01:27:04.409Z,15.04
2023-08-11T01:31:09.992Z,15.01
2023-08-11T01:35:17.373Z,14.97
2023-08-11T01:39:26.127Z,14.94
2023-08-11T01:43:32.510Z,14.90
2023-08-11T01:47:37.736Z,14.86
2023-08-11T01:51:41.274Z,14.80
2023-08-11T01:55:46.075Z,14.75
2023-08-11T01:59:51.291Z,14.72
2023-08-11T02:03:54.741Z,14.67
2023-08-11T02:07:58.126Z,14.67
2023-08-11T02:12:01.807Z,14.68
2023-08-11T02:16:06.823Z,14.71
2023-08-11T02:20:14.879Z,14.73
2023-08-11T02:24:17.980Z,14.76
2023-08-11T02:28:21.854Z,14.77
2023-08-11T02:32:26.908Z,14.76
2023-08-11T02:36:30.550Z,14.76
2023-08-11T02:40:33.775Z,14.73
2023-08-11T02:44:37.313Z,14.70
2023-08-11T02:48:42.224Z,14.66
2023-08-11T02:52:45.605Z,14.62
2023-08-11T02:56:49.302Z,14.59
2023-08-11T03:00:52.950Z,14.58
2023-08-11T03:04:57.943Z,14.57
2023-08-11T03:09:01.110Z,14.56
2023-08-11T03:13:04.498Z,14.55
2023-08-11T03:17:08.339Z,14.50
2023-08-11T03:21:19.756Z,14.48
2023-08-11T03:25:24.075Z,14.43
2023-08-11T03:29:27.615Z,14.37
2023-08-11T03:33:31.194Z,14.34
2023-08-11T03:37:36.208Z,14.29
2023-08-11T03:41:39.858Z,14.24
2023-08-11T03:45:42.974Z,14.20
2023-08-11T03:49:47.609Z,14.16
2023-08-11T03:53:52.304Z,14.15
2023-08-11T03:57:55.737Z,14.12
2023-08-11T04:01:59.068Z,14.11
2023-08-11T04:06:03.526Z,14.08
2023-08-11T04:10:11.984Z,14.06
2023-08-11T04:14:15.683Z,14.05
2023-08-11T04:18:18.896Z,14.03
2023-08-11T04:22:29.189Z,14.02
2023-08-11T04:26:41.878Z,14.00
2023-08-11T04:30:45.595Z,13.98
2023-08-11T04:34:48.922Z,14.00
2023-08-11T04:38:52.830Z,14.02
2023-08-11T04:43:10.931Z,14.06
2023-08-11T04:47:14.378Z,14.10
2023-08-11T04:51:18.525Z,14.17
2023-08-11T04:55:21.998Z,14.24
2023-08-11T04:59:27.028Z,14.32
2023-08-11T05:03:30.969Z,14.39
2023-08-11T05:07:35.993Z,14.50
2023-08-11T05:11:42.267Z,14.58
2023-08-11T05:15:47.399Z,14.69
2023-08-11T05:19:51.629Z,14.79
2023-08-11T05:23:54.744Z,14.92
2023-08-11T05:27:58.049Z,15.06
2023-08-11T05:32:03.240Z,15.21
2023-08-11T05:36:07.490Z,15.35
2023-08-11T05:40:11.614Z,15.50
2023-08-11T05:44:15.097Z,15.63
2023-08-11T05:48:19.764Z,15.76
2023-08-11T05:52:23.736Z,15.89
2023-08-11T05:56:27.270Z,16.01
2023-08-11T06:00:30.780Z,16.15
2023-08-11T06:04:35.603Z,16.27
2023-08-11T06:08:42.153Z,16.38
2023-08-11T06:12:45.669Z,16.53
2023-08-11T06:16:49.166Z,16.65
2023-08-11T06:20:54.449Z,16.78
2023-08-11T06:24:57.792Z,16.91
2023-08-11T06:29:00.820Z,17.05
2023-08-11T06:33:04.468Z,17.24
2023-08-11T06:37:09.940Z,17.45
2023-08-11T06:41:14.242Z,17.66
2023-08-11T06:45:17.710Z,17.93
2023-08-11T06:49:21.412Z,18.20
2023-08-11T06:53:26.273Z,18.52
2023-08-11T06:57:29.926Z,18.86
2023-08-11T07:01:33.576Z,19.28
2023-08-11T07:05:37.161Z,19.81
2023-08-11T07:09:42.094Z,20.43
2023-08-11T07:13:45.753Z,21.12
2023-08-11T07:17:49.367Z,21.83
2023-08-11T07:21:53.347Z,22.57
2023-08-11T07:25:58.035Z,23.29
2023-08-11T07:30:01.401Z,23.99
2023-08-11T07:34:05.252Z,24.60
2023-08-11T07:38:10.673Z,25.14
2023-08-11T07:42:17.361Z,25.62
2023-08-11T07:46:21.097Z,26.10
2023-08-11T07:50:24.333Z,26.47
2023-08-11T07:54:28.947Z,26.86
2023-08-11T07:58:33.753Z,27.28
2023-08-11T08:02:37.068Z,27.69
2023-08-11T08:06:46.600Z,28.08
2023-08-11T08:10:50.064Z,28.49
2023-08-11T08:14:54.752Z,28.88
2023-08-11T08:18:58.694Z,29.27
2023-08-11T08:23:02.551Z,29.56
2023-08-11T08:27:07.171Z,29.78
2023-08-11T08:31:12.299Z,29.99
2023-08-11T08:35:15.739Z,30.19
2023-08-11T08:39:18.981Z,30.34
2023-08-11T08:43:24.026Z,30.48
2023-08-11T08:47:29.284Z,30.59
2023-08-11T08:51:34.027Z,30.61
2023-08-11T08:55:37.422Z,30.72
2023-08-11T08:59:43.696Z,30.86
2023-08-11T09:03:49.418Z,31.05
2023-08-11T09:07:53.637Z,31.21
2023-08-11T09:11:58.647Z,31.41
2023-08-11T09:16:02.801Z,31.53
2023-08-11T09:20:11.249Z,31.71
2023-08-11T09:24:16.224Z,31.86
2023-08-11T09:28:19.249Z,32.08
2023-08-11T09:32:27.256Z,32.28
2023-08-11T09:36:33.783Z,32.55
2023-08-11T09:40:40.037Z,32.71
2023-08-11T09:44:45.253Z,32.86
2023-08-11T09:48:52.865Z,32.98
2023-08-11T09:53:02.075Z,33.16
2023-08-11T09:57:07.802Z,33.27
2023-08-11T10:01:20.680Z,33.45
2023-08-11T10:05:30.828Z,33.64
2023-08-11T10:09:39.306Z,33.83
2023-08-11T10:13:45.308Z,33.87
2023-08-11T10:17:49.797Z,33.82
2023-08-11T10:21:57.570Z,33.84
2023-08-11T10:26:03.335Z,33.95
2023-08-11T10:30:11.298Z,34.02
2023-08-11T10:34:14.958Z,34.01
2023-08-11T10:38:26.618Z,34.04
2023-08-11T10:42:31.497Z,34.12
2023-08-11T10:46:38.587Z,34.19
2023-08-11T10:50:43.024Z,34.28
2023-08-11T10:54:52.645Z,34.37
2023-08-11T10:59:06.665Z,34.54
2023-08-11T11:03:13.413Z,34.67
2023-08-11T11:07:19.613Z,34.78
2023-08-11T11:11:23.174Z,34.79
2023-08-11T11:15:32.481Z,34.79
2023-08-11T11:19:36.380Z,34.76
2023-08-11T11:23:40.137Z,34.78
2023-08-11T11:27:44.506Z,34.82
2023-08-11T11:31:50.596Z,34.95
2023-08-11T11:35:55.052Z,35.05
2023-08-11T11:39:59.792Z,35.18
2023-08-11T11:44:04.871Z,35.21
2023-08-11T11:48:09.784Z,35.16
2023-08-11T11:52:16.110Z,35.16
2023-08-11T11:56:20.875Z,35.20
2023-08-11T12:00:27.014Z,35.25
2023-08-11T12:04:32.216Z,35.24
2023-08-11T12:08:36.569Z,35.18
2023-08-11T12:12:44.544Z,35.06
2023-08-11T12:16:48.173Z,34.98
2023-08-11T12:20:53.503Z,34.89
2023-08-11T12:24:57.113Z,34.88
2023-08-11T12:29:00.253Z,34.94
2023-08-11T12:33:04.033Z,35.04
2023-08-11T12:37:12.274Z,35.11
2023-08-11T12:41:19.015Z,35.11
2023-08-11T12:45:22.617Z,35.10
2023-08-11T12:49:25.834Z,35.09
2023-08-11T12:53:31.179Z,35.14
2023-08-11T12:57:35.003Z,35.21
2023-08-11T13:01:40.399Z,35.30
2023-08-11T13:05:43.743Z,35.33
2023-08-11T13:09:51.238Z,35.34
2023-08-11T13:13:54.639Z,35.34
2023-08-11T13:17:58.352Z,35.40
2023-08-11T13:22:08.277Z,35.48
2023-08-11T13:26:16.124Z,35.54
2023-08-11T13:30:20.817Z,35.53
2023-08-11T13:34:24.886Z,35.47
2023-08-11T13:38:29.198Z,35.40
2023-08-11T13:42:35.221Z,35.37
2023-08-11T13:46:38.224Z,35.36
2023-08-11T13:50:41.902Z,35.40
2023-08-11T13:54:58.922Z,35.43
2023-08-11T13:59:04.912Z,35.45
2023-08-11T14:03:08.513Z,35.47
2023-08-11T14:07:28.210Z,35.51
2023-08-11T14:11:33.063Z,35.48
2023-08-11T14:15:39.586Z,35.43
2023-08-11T14:19:43.143Z,35.43
2023-08-11T14:23:47.521Z,35.45
2023-08-11T14:27:50.884Z,35.48
2023-08-11T14:31:59.071Z,35.52
2023-08-11T14:36:13.517Z,35.53
2023-08-11T14:40:17.973Z,35.55
2023-08-11T14:44:22.719Z,35.54
2023-08-11T14:48:28.382Z,35.56
2023-08-11T14:52:32.584Z,35.55
2023-08-11T14:56:36.142Z,35.51
2023-08-11T15:00:40.004Z,35.47
2023-08-11T15:04:45.369Z,35.44
2023-08-11T15:08:49.325Z,35.39
2023-08-11T15:12:54.064Z,35.35
2023-08-11T15:16:57.714Z,35.31
2023-08-11T15:21:02.463Z,35.28
2023-08-11T15:25:07.199Z,35.23
2023-08-11T15:29:10.486Z,35.19
2023-08-11T15:33:14.278Z,35.13
2023-08-11T15:37:19.207Z,35.07
2023-08-11T15:41:22.892Z,34.98
2023-08-11T15:45:26.013Z,34.87
2023-08-11T15:49:29.970Z,34.76
2023-08-11T15:53:34.602Z,34.67
2023-08-11T15:57:38.577Z,34.61
2023-08-11T16:01:47.704Z,34.54
2023-08-11T16:06:00.117Z,34.43
2023-08-11T16:10:05.817Z,34.30
2023-08-11T16:14:09.366Z,34.14
2023-08-11T16:18:13.702Z,34.00
2023-08-11T16:22:16.745Z,33.86
2023-08-11T16:26:21.891Z,33.76
2023-08-11T16:30:25.683Z,33.62
2023-08-11T16:34:28.980Z,33.52
2023-08-11T16:38:32.530Z,33.40
2023-08-11T16:42:40.054Z,33.29
2023-08-11T16:46:43.174Z,33.15
2023-08-11T16:50:46.954Z,33.00
2023-08-11T16:54:50.385Z,32.82
2023-08-11T16:58:55.064Z,32.61
2023-08-11T17:02:58.591Z,32.36
2023-08-11T17:07:02.162Z,32.09
2023-08-11T17:11:05.574Z,31.83
2023-08-11T17:15:12.002Z,31.56
2023-08-11T17:19:15.152Z,31.25
2023-08-11T21:14:53.862Z,20.93
2023-08-11T21:18:57.095Z,20.83
2023-08-11T21:23:01.275Z,20.76
2023-08-11T21:27:04.505Z,20.69
2023-08-11T21:31:18.305Z,20.63
2023-08-11T21:35:24.041Z,20.56
2023-08-11T21:39:28.668Z,20.52
2023-08-11T21:43:31.932Z,20.47
2023-08-11T21:47:37.293Z,20.40
2023-08-11T21:51:40.879Z,20.33
2023-08-11T21:55:45.001Z,20.22
2023-08-11T21:59:48.342Z,20.13
2023-08-11T22:03:52.975Z,20.04
2023-08-11T22:07:56.340Z,19.94
2023-08-11T22:12:01.582Z,19.85
2023-08-11T22:16:05.160Z,19.76
2023-08-11T22:20:13.041Z,19.67
2023-08-11T22:24:23.992Z,19.56
2023-08-11T22:28:34.459Z,19.49
2023-08-11T22:32:37.979Z,19.42
2023-08-11T22:36:43.150Z,19.38
2023-08-11T22:40:46.948Z,19.33
2023-08-11T22:44:51.694Z,19.26
2023-08-11T22:48:55.331Z,19.19
2023-08-11T22:53:00.295Z,19.12
2023-08-11T22:57:03.475Z,19.03
2023-08-11T23:01:06.798Z,18.93
2023-08-11T23:05:10.729Z,18.84
2023-08-11T23:09:15.454Z,18.79
2023-08-11T23:13:19.396Z,18.74
2023-08-11T23:17:23.618Z,18.68
2023-08-11T23:21:27.464Z,18.59
2023-08-11T23:25:34.362Z,18.54
2023-08-11T23:29:37.980Z,18.47
2023-08-11T23:33:41.086Z,18.42
2023-08-11T23:37:44.983Z,18.39
2023-08-11T23:41:50.223Z,18.35
2023-08-11T23:45:53.978Z,18.30
2023-08-11T23:49:58.061Z,18.27
2023-08-11T23:54:01.847Z,18.25
2023-08-11T23:58:06.547Z,18.23
